createdAt,value
2019-05-26T00:03:57.405Z,20.23
2019-05-26T00:09:15.716Z,19.65
2019-05-26T00:11:47.379Z,17.97
2019-05-26T00:16:52.076Z,18.40
2019-05-26T00:19:20.452Z,19.80
2019-05-26T00:21:51.837Z,16.47
2019-05-26T00:24:20.231Z,16.73
2019-05-26T00:29:24.872Z,17.60
2019-05-26T00:31:53.265Z,16.80
2019-05-26T00:34:40.742Z,15.93
2019-05-26T00:37:09.174Z,17.07
2019-05-26T00:39:47.674Z,16.77
2019-05-26T00:42:24.228Z,15.63
2019-05-26T00:44:52.629Z,17.07
2019-05-26T00:47:25.114Z,17.50
2019-05-26T00:49:53.502Z,18.03
2019-05-26T00:52:46.017Z,20.23
2019-05-26T00:55:28.155Z,17.90
2019-05-26T00:57:56.672Z,17.07
2019-05-26T01:00:41.543Z,17.67
2019-05-26T01:03:11.924Z,17.60
2019-05-26T01:05:44.591Z,15.77
2019-05-26T01:08:19.095Z,17.80
2019-05-26T01:10:47.507Z,15.87
2019-05-26T01:13:20.919Z,15.77
2019-05-26T01:15:50.318Z,16.60
2019-05-26T01:18:18.731Z,19.35
2019-05-26T01:20:47.097Z,17.67
2019-05-26T01:23:19.194Z,17.10
2019-05-26T01:25:47.573Z,16.23
2019-05-26T01:28:37.536Z,15.50
2019-05-26T01:31:05.961Z,15.60
2019-05-26T01:38:47.770Z,19.00
2019-05-26T01:41:21.581Z,17.50
2019-05-26T01:43:49.972Z,16.60
2019-05-26T01:46:29.165Z,15.43
2019-05-26T01:48:57.568Z,24.00
2019-05-26T01:51:29.384Z,15.47
2019-05-26T01:53:58.647Z,15.27
2019-05-26T01:56:46.155Z,14.80
2019-05-26T01:59:20.016Z,13.90
2019-05-26T02:01:49.368Z,14.80
2019-05-26T02:04:35.316Z,13.27
2019-05-26T02:09:40.026Z,15.93
2019-05-26T02:12:19.578Z,16.87
2019-05-26T02:14:47.970Z,14.93
2019-05-26T02:17:16.357Z,14.40
2019-05-26T02:19:45.656Z,13.60
2019-05-26T02:22:14.156Z,12.97
2019-05-26T02:24:42.530Z,13.00
2019-05-26T02:27:19.700Z,13.57
2019-05-26T02:32:24.302Z,15.60
2019-05-26T02:35:05.661Z,15.10
2019-05-26T02:37:34.074Z,13.93
2019-05-26T02:40:14.416Z,12.40
2019-05-26T02:42:42.821Z,12.37
2019-05-26T02:45:24.519Z,13.27
2019-05-26T02:48:10.187Z,11.83
2019-05-26T02:50:38.575Z,12.23
2019-05-26T02:53:13.202Z,11.00
2019-05-26T02:55:41.616Z,10.30
2019-05-26T02:58:23.753Z,11.27
2019-05-26T03:01:22.985Z,10.20
2019-05-26T03:03:51.344Z,8.83
2019-05-26T03:06:26.019Z,8.47
2019-05-26T03:11:32.572Z,10.43
2019-05-26T03:14:07.190Z,9.50
2019-05-26T03:16:35.569Z,9.40
2019-05-26T03:19:05.919Z,8.60
2019-05-26T03:21:35.188Z,8.30
2019-05-26T03:26:43.861Z,9.65
2019-05-26T03:29:22.345Z,8.50
2019-05-26T03:31:57.139Z,9.37
2019-05-26T03:34:25.647Z,9.00
2019-05-26T03:36:57.686Z,11.30
2019-05-26T03:39:43.517Z,11.18
2019-05-26T03:41:58.064Z,11.60
2019-05-26T03:44:26.434Z,12.35
2019-05-26T03:46:59.506Z,10.47
2019-05-26T03:49:27.994Z,9.37
2019-05-26T03:54:35.714Z,9.83
2019-05-26T03:57:04.077Z,10.10
2019-05-26T03:59:32.470Z,9.23
2019-05-26T04:02:23.995Z,8.93
2019-05-26T04:05:15.923Z,8.37
2019-05-26T04:07:46.226Z,9.20
2019-05-26T04:10:25.039Z,8.07
2019-05-26T04:12:57.030Z,8.87
2019-05-26T04:15:25.410Z,8.70
2019-05-26T04:17:58.702Z,9.23
2019-05-26T04:20:28.962Z,9.20
2019-05-26T04:23:09.792Z,8.90
2019-05-26T04:25:39.059Z,7.97
2019-05-26T04:28:11.269Z,8.10
2019-05-26T04:30:39.551Z,8.53
2019-05-26T04:33:07.957Z,8.80
2019-05-26T04:35:36.368Z,8.53
2019-05-26T04:38:10.718Z,8.93
2019-05-26T04:40:39.052Z,9.20
2019-05-26T04:43:08.324Z,8.70
2019-05-26T04:45:43.326Z,7.57
2019-05-26T04:48:11.742Z,8.20
2019-05-26T04:50:40.155Z,8.05
2019-05-26T04:53:08.537Z,9.07
2019-05-26T04:55:40.716Z,7.23
2019-05-26T04:58:10.249Z,7.40
2019-05-26T05:01:03.480Z,7.75
2019-05-26T05:06:11.114Z,7.60
2019-05-26T05:08:58.551Z,8.00
2019-05-26T05:11:30.919Z,7.00
2019-05-26T05:16:35.546Z,7.37
2019-05-26T05:19:05.815Z,6.30
2019-05-26T05:21:53.369Z,6.10
2019-05-26T05:24:21.743Z,6.57
2019-05-26T05:26:50.801Z,5.67
2019-05-26T05:29:19.242Z,6.07
2019-05-26T05:31:51.583Z,6.10
2019-05-26T05:34:19.913Z,5.83
2019-05-26T05:36:56.779Z,5.30
2019-05-26T05:42:04.408Z,5.45
2019-05-26T05:44:33.682Z,5.83
2019-05-26T05:47:03.981Z,5.30
2019-05-26T05:49:36.873Z,5.33
2019-05-26T05:52:06.124Z,5.30
2019-05-26T05:54:34.525Z,4.97
2019-05-26T05:57:03.852Z,5.60
2019-05-26T05:59:40.178Z,5.40
2019-05-26T06:02:08.477Z,5.60
2019-05-26T06:04:54.457Z,6.20
2019-05-26T06:07:22.808Z,5.30
2019-05-26T06:09:57.370Z,5.13
2019-05-26T06:12:38.910Z,5.17
2019-05-26T06:15:09.735Z,6.03
2019-05-26T06:17:42.075Z,5.40
2019-05-26T06:20:10.453Z,5.70
2019-05-26T06:25:16.057Z,6.10
2019-05-26T06:30:35.430Z,6.00
2019-05-26T06:33:03.807Z,5.83
2019-05-26T06:35:33.255Z,5.77
2019-05-26T06:38:04.787Z,5.67
2019-05-26T06:40:34.053Z,6.03
2019-05-26T06:43:03.340Z,6.10
2019-05-26T06:45:35.238Z,5.73
2019-05-26T06:48:03.656Z,6.00
2019-05-26T06:50:35.741Z,6.27
2019-05-26T06:55:43.389Z,5.80
2019-05-26T06:58:11.773Z,6.20
2019-05-26T07:00:40.127Z,7.23
2019-05-26T07:03:11.701Z,6.70
2019-05-26T07:05:40.727Z,7.33
2019-05-26T07:08:14.499Z,7.10
2019-05-26T07:10:42.889Z,7.62
2019-05-26T07:13:11.266Z,6.60
2019-05-26T07:15:39.635Z,10.30
2019-05-26T07:20:44.314Z,7.40
2019-05-26T07:23:12.817Z,6.83
2019-05-26T07:25:41.073Z,7.77
2019-05-26T07:28:12.967Z,7.30
2019-05-26T07:30:41.349Z,7.00
2019-05-26T07:33:11.657Z,7.00
2019-05-26T07:38:16.340Z,6.57
2019-05-26T07:40:47.194Z,6.57
2019-05-26T07:43:20.775Z,8.10
2019-05-26T07:45:49.168Z,7.20
2019-05-26T07:48:17.539Z,6.60
2019-05-26T07:50:45.911Z,6.13
2019-05-26T07:55:50.666Z,6.60
2019-05-26T07:58:34.048Z,5.90
2019-05-26T08:01:02.397Z,6.00
2019-05-26T08:03:30.742Z,5.47
2019-05-26T08:08:35.469Z,6.10
2019-05-26T08:11:07.283Z,6.40
2019-05-26T08:13:35.661Z,5.97
2019-05-26T08:16:04.020Z,5.50
2019-05-26T08:18:34.269Z,6.17
2019-05-26T08:21:19.906Z,5.77
2019-05-26T08:23:48.253Z,7.67
2019-05-26T08:26:29.530Z,7.20
2019-05-26T08:29:11.387Z,5.13
2019-05-26T08:31:39.746Z,5.87
2019-05-26T08:34:33.711Z,5.53
2019-05-26T08:37:02.836Z,6.60
2019-05-26T08:44:55.890Z,6.53
2019-05-26T08:53:14.378Z,6.35
2019-05-26T08:55:42.763Z,5.80
2019-05-26T08:58:21.883Z,5.90
2019-05-26T09:00:50.277Z,5.30
2019-05-26T09:03:33.313Z,6.30
2019-05-26T09:06:02.594Z,5.70
2019-05-26T09:11:09.305Z,5.37
2019-05-26T09:13:41.055Z,5.83
2019-05-26T09:16:09.444Z,5.30
2019-05-26T09:18:38.682Z,5.23
2019-05-26T09:21:07.946Z,6.63
2019-05-26T09:26:16.516Z,4.82
2019-05-26T09:28:46.821Z,5.57
2019-05-26T09:31:15.154Z,4.90
2019-05-26T09:36:19.784Z,5.05
2019-05-26T09:38:53.707Z,5.30
2019-05-26T09:44:02.291Z,5.18
2019-05-26T09:49:07.902Z,5.55
2019-05-26T09:51:39.868Z,4.97
2019-05-26T09:54:08.718Z,5.50
2019-05-26T09:56:41.503Z,4.80
2019-05-26T09:59:09.885Z,5.07
2019-05-26T10:01:39.149Z,4.50
2019-05-26T10:04:07.517Z,4.60
2019-05-26T10:09:26.198Z,4.15
2019-05-26T10:11:55.467Z,4.23
2019-05-26T10:14:23.809Z,3.97
2019-05-26T10:16:57.804Z,2.80
2019-05-26T10:19:31.376Z,3.43
2019-05-26T10:22:04.061Z,2.70
2019-05-26T10:24:41.085Z,3.20
2019-05-26T10:27:09.435Z,3.20
2019-05-26T10:29:37.800Z,3.17
2019-05-26T10:32:06.165Z,3.13
2019-05-26T10:34:41.184Z,2.57
2019-05-26T10:37:09.536Z,2.53
2019-05-26T10:39:44.832Z,2.80
2019-05-26T10:42:09.919Z,2.60
2019-05-26T10:47:19.831Z,2.70
2019-05-26T10:49:48.284Z,1.83
2019-05-26T10:55:12.938Z,2.90
2019-05-26T10:57:43.315Z,3.10
2019-05-26T11:00:24.902Z,2.73
2019-05-26T11:02:53.501Z,2.70
2019-05-26T11:05:36.181Z,2.60
2019-05-26T11:08:18.145Z,2.50
2019-05-26T11:10:46.646Z,2.83
2019-05-26T11:13:17.002Z,3.57
2019-05-26T11:15:45.405Z,3.00
2019-05-26T11:18:13.759Z,2.90
2019-05-26T11:20:42.138Z,3.53
2019-05-26T11:23:10.512Z,3.60
2019-05-26T11:25:44.928Z,3.67
2019-05-26T11:28:14.403Z,2.87
2019-05-26T11:30:42.886Z,4.10
2019-05-26T11:33:11.313Z,3.07
2019-05-26T11:35:45.965Z,3.00
2019-05-26T11:38:15.258Z,3.53
2019-05-26T11:41:01.492Z,2.80
2019-05-26T11:43:29.833Z,3.00
2019-05-26T11:46:04.102Z,3.30
2019-05-26T11:48:39.328Z,3.50
2019-05-26T11:51:09.799Z,3.40
2019-05-26T11:53:38.157Z,2.70
2019-05-26T11:56:11.337Z,3.10
2019-05-26T11:58:52.753Z,2.77
2019-05-26T12:01:23.219Z,3.23
2019-05-26T12:03:57.928Z,2.93
2019-05-26T12:06:26.317Z,3.80
2019-05-26T12:09:00.039Z,3.23
2019-05-26T12:11:30.338Z,2.97
2019-05-26T12:13:59.682Z,3.07
2019-05-26T12:16:29.117Z,2.90
2019-05-26T12:19:01.230Z,2.90
2019-05-26T12:21:33.108Z,2.93
2019-05-26T12:24:01.488Z,2.67
2019-05-26T12:26:57.550Z,2.80
2019-05-26T12:29:39.291Z,2.43
2019-05-26T12:32:09.542Z,3.07
2019-05-26T12:37:17.264Z,2.83
2019-05-26T12:39:51.704Z,2.93
2019-05-26T12:45:01.270Z,3.10
2019-05-26T12:47:30.441Z,2.77
2019-05-26T12:49:58.798Z,2.73
2019-05-26T12:52:27.280Z,2.67
2019-05-26T12:55:02.002Z,2.20
2019-05-26T12:57:56.729Z,2.83
2019-05-26T13:00:26.987Z,2.93
2019-05-26T13:05:39.583Z,3.25
2019-05-26T13:08:08.052Z,3.03
2019-05-26T13:10:36.593Z,2.53
2019-05-26T13:13:05.842Z,3.03
2019-05-26T13:15:41.412Z,2.80
2019-05-26T13:18:09.776Z,3.60
2019-05-26T13:20:43.057Z,3.10
2019-05-26T13:23:12.340Z,2.95
2019-05-26T13:25:42.299Z,5.00
2019-05-26T13:28:12.581Z,8.27
2019-05-26T13:30:44.197Z,3.17
2019-05-26T13:33:12.531Z,4.30
2019-05-26T13:35:55.925Z,4.40
2019-05-26T13:38:24.374Z,3.10
2019-05-26T13:41:00.754Z,3.90
2019-05-26T13:43:55.140Z,4.20
2019-05-26T13:46:25.412Z,3.37
2019-05-26T13:49:00.325Z,5.00
2019-05-26T13:51:32.370Z,3.10
2019-05-26T13:54:00.799Z,2.87
2019-05-26T13:56:32.860Z,2.80
2019-05-26T13:59:01.250Z,2.93
2019-05-26T14:04:06.041Z,3.22
2019-05-26T14:06:39.028Z,3.00
2019-05-26T14:09:07.406Z,2.53
2019-05-26T14:11:36.496Z,2.67
2019-05-26T14:14:04.858Z,3.07
2019-05-26T14:19:25.691Z,2.50
2019-05-26T14:21:58.587Z,2.20
2019-05-26T14:24:28.147Z,2.50
2019-05-26T14:26:56.546Z,3.17
2019-05-26T14:29:29.032Z,2.07
2019-05-26T14:31:59.460Z,2.27
2019-05-26T14:34:36.038Z,2.30
2019-05-26T14:37:06.386Z,2.67
2019-05-26T14:39:36.694Z,2.70
2019-05-26T14:42:10.858Z,2.20
2019-05-26T14:44:40.157Z,2.30
2019-05-26T14:47:23.724Z,2.30
2019-05-26T14:49:52.056Z,2.10
2019-05-26T14:52:27.212Z,2.20
2019-05-26T14:57:41.894Z,2.30
2019-05-26T15:02:50.571Z,2.12
2019-05-26T15:05:24.130Z,2.20
2019-05-26T15:07:54.469Z,2.30
2019-05-26T15:10:23.738Z,2.53
2019-05-26T15:12:57.600Z,2.43
2019-05-26T15:15:25.995Z,2.50
2019-05-26T15:17:54.974Z,2.50
2019-05-26T15:20:23.347Z,2.47
2019-05-26T15:22:51.768Z,2.63
2019-05-26T15:25:23.712Z,2.17
2019-05-26T15:27:57.481Z,2.47
2019-05-26T15:30:26.636Z,4.10
2019-05-26T15:33:05.605Z,8.20
2019-05-26T15:35:34.037Z,5.37
2019-05-26T15:40:38.740Z,3.00
2019-05-26T15:43:07.108Z,3.10
2019-05-26T15:45:35.478Z,3.13
2019-05-26T15:48:05.778Z,2.50
2019-05-26T15:50:36.324Z,3.40
2019-05-26T15:53:10.523Z,2.70
2019-05-26T15:55:40.858Z,3.33
2019-05-26T15:58:09.932Z,2.90
2019-05-26T16:00:39.126Z,2.73
2019-05-26T16:03:09.389Z,2.70
2019-05-26T16:05:37.742Z,3.30
2019-05-26T16:10:58.309Z,3.28
2019-05-26T16:13:26.679Z,2.83
2019-05-26T16:15:55.101Z,3.53
2019-05-26T16:18:25.363Z,2.27
2019-05-26T16:21:03.145Z,3.20
2019-05-26T16:23:26.083Z,3.00
2019-05-26T16:25:55.436Z,3.57
2019-05-26T16:28:24.682Z,3.00
2019-05-26T16:30:57.783Z,3.63
2019-05-26T16:33:27.040Z,3.60
2019-05-26T16:36:01.458Z,4.13
2019-05-26T16:38:29.856Z,3.13
2019-05-26T16:41:02.491Z,3.50
2019-05-26T16:43:33.844Z,5.03
2019-05-26T16:46:02.176Z,3.60
2019-05-26T16:53:48.303Z,3.80
2019-05-26T16:56:16.673Z,4.00
2019-05-26T16:58:45.378Z,3.03
2019-05-26T17:01:13.767Z,3.50
2019-05-26T17:03:42.154Z,3.40
2019-05-26T17:06:17.159Z,3.80
2019-05-26T17:08:45.581Z,2.90
2019-05-26T17:11:17.242Z,3.33
2019-05-26T17:13:47.967Z,3.40
2019-05-26T17:16:26.487Z,3.47
2019-05-26T17:19:01.413Z,2.63
2019-05-26T17:21:30.659Z,3.50
2019-05-26T17:24:04.362Z,5.83
2019-05-26T17:26:32.712Z,4.80
2019-05-26T17:29:04.930Z,3.50
2019-05-26T17:31:34.123Z,3.40
2019-05-26T17:34:02.526Z,3.50
2019-05-26T17:36:30.894Z,3.00
2019-05-26T17:38:59.262Z,3.10
2019-05-26T17:41:28.858Z,3.40
2019-05-26T17:44:17.965Z,3.07
2019-05-26T17:46:53.446Z,3.53
2019-05-26T17:51:58.115Z,3.60
2019-05-26T17:54:27.405Z,3.60
2019-05-26T17:57:06.197Z,3.10
2019-05-26T17:59:35.477Z,3.10
2019-05-26T18:02:03.820Z,3.20
2019-05-26T18:04:32.189Z,3.07
2019-05-26T18:09:44.089Z,4.00
2019-05-26T18:12:05.209Z,3.80
2019-05-26T18:14:33.615Z,3.97
2019-05-26T18:17:06.845Z,3.40
2019-05-26T18:19:36.025Z,3.93
2019-05-26T18:24:54.982Z,3.60
2019-05-26T18:27:15.439Z,4.17
2019-05-26T18:29:44.806Z,3.90
2019-05-26T18:32:13.293Z,4.10
2019-05-26T18:34:41.645Z,4.10
2019-05-26T18:37:09.991Z,3.60
2019-05-26T18:39:41.950Z,4.20
2019-05-26T18:42:10.296Z,10.27
2019-05-26T18:45:00.307Z,4.93
2019-05-26T18:50:54.627Z,4.40
2019-05-26T18:53:34.849Z,4.90
2019-05-26T18:56:03.268Z,4.40
2019-05-26T18:58:33.574Z,4.43
2019-05-26T19:01:02.729Z,4.80
2019-05-26T19:03:50.228Z,8.90
2019-05-26T19:06:18.592Z,4.70
2019-05-26T19:11:59.600Z,4.97
2019-05-26T19:20:42.378Z,5.10
2019-05-26T19:23:11.282Z,5.23
2019-05-26T19:25:40.581Z,4.40
2019-05-26T19:28:08.984Z,4.63
2019-05-26T19:30:39.317Z,4.00
2019-05-26T19:33:07.694Z,3.70
2019-05-26T19:41:23.807Z,4.40
2019-05-26T19:49:07.676Z,4.83
2019-05-26T19:51:38.423Z,5.50
2019-05-26T19:54:06.784Z,5.00
2019-05-26T19:56:35.128Z,5.03
2019-05-26T19:59:03.552Z,5.90
2019-05-26T20:04:11.114Z,5.53
2019-05-26T20:06:59.179Z,5.23
2019-05-26T20:09:27.588Z,5.43
2019-05-26T20:11:58.111Z,6.10
2019-05-26T20:14:37.187Z,5.27
2019-05-26T20:17:05.565Z,6.03
2019-05-26T20:19:35.857Z,6.13
2019-05-26T20:22:04.206Z,5.63
2019-05-26T20:24:33.482Z,6.10
2019-05-26T20:27:01.847Z,5.83
2019-05-26T20:29:30.236Z,6.60
2019-05-26T20:31:58.669Z,5.97
2019-05-26T20:34:27.042Z,7.00
2019-05-26T20:36:56.327Z,6.67
2019-05-26T20:39:28.365Z,6.60
2019-05-26T20:42:00.083Z,6.67
2019-05-26T20:44:28.426Z,7.68
2019-05-26T20:47:27.194Z,6.90
2019-05-26T20:49:55.670Z,6.80
2019-05-26T20:55:27.218Z,6.53
2019-05-26T21:00:35.908Z,6.83
2019-05-26T21:05:40.547Z,7.17
2019-05-26T21:08:13.371Z,5.77
2019-05-26T21:10:41.794Z,6.83
2019-05-26T21:13:16.044Z,5.80
2019-05-26T21:15:47.616Z,6.37
2019-05-26T21:18:17.946Z,6.47
2019-05-26T21:23:27.587Z,6.28
2019-05-26T21:25:55.910Z,7.23
2019-05-26T21:28:25.262Z,6.00
2019-05-26T21:31:10.481Z,6.30
2019-05-26T21:33:38.870Z,5.33
2019-05-26T21:38:43.570Z,6.40
2019-05-26T21:41:14.746Z,6.80
2019-05-26T21:43:43.303Z,5.97
2019-05-26T21:46:15.080Z,5.73
2019-05-26T21:48:43.463Z,6.50
2019-05-26T21:54:08.314Z,6.37
2019-05-26T21:56:36.649Z,6.67
2019-05-26T22:01:41.272Z,6.27
2019-05-26T22:04:09.617Z,5.87
2019-05-26T22:06:37.980Z,6.57
2019-05-26T22:09:06.336Z,6.73
2019-05-26T22:11:36.675Z,6.17
2019-05-26T22:14:05.087Z,5.90
2019-05-26T22:19:05.253Z,6.28
2019-05-26T22:21:35.546Z,5.67
2019-05-26T22:24:04.981Z,6.57
2019-05-26T22:26:33.269Z,6.47
2019-05-26T22:29:01.639Z,5.50
2019-05-26T22:34:10.264Z,6.40
2019-05-26T22:36:39.559Z,6.05
2019-05-26T22:39:07.966Z,6.65
2019-05-26T22:41:54.536Z,5.80
2019-05-26T22:44:28.632Z,6.33
2019-05-26T22:46:57.185Z,5.97
2019-05-26T22:49:25.549Z,5.77
2019-05-26T22:52:07.638Z,5.30
2019-05-26T22:54:53.451Z,5.70
2019-05-26T22:57:21.849Z,5.97
2019-05-26T23:00:05.665Z,6.30
2019-05-26T23:02:51.912Z,5.30
2019-05-26T23:05:20.304Z,6.00
2019-05-26T23:08:05.465Z,5.93
2019-05-26T23:13:10.054Z,6.45
2019-05-26T23:15:39.445Z,6.37
2019-05-26T23:18:08.717Z,6.25
2019-05-26T23:23:18.269Z,6.30
2019-05-26T23:28:27.747Z,5.65
2019-05-26T23:30:58.097Z,5.83
2019-05-26T23:33:35.051Z,6.70
2019-05-26T23:36:03.405Z,6.03
2019-05-26T23:38:54.001Z,5.50
2019-05-26T23:41:37.214Z,5.57
2019-05-26T23:44:05.573Z,5.47
2019-05-26T23:46:54.019Z,5.33
2019-05-26T23:49:32.567Z,5.27
2019-05-26T23:52:00.910Z,5.53
2019-05-26T23:57:07.514Z,6.10
2019-05-26T23:59:54.577Z,6.40
